sensor_id;sensor_type;location;lat;lon;timestamp;temperature;humidity
10530;DHT22;5313;48.834;9.228;2023-07-29T00:00:46;17.90;99.90
10530;DHT22;5313;48.834;9.228;2023-07-29T00:03:12;18.00;99.90
10530;DHT22;5313;48.834;9.228;2023-07-29T00:05:38;18.00;99.90
10530;DHT22;5313;48.834;9.228;2023-07-29T00:08:04;18.10;99.90
10530;DHT22;5313;48.834;9.228;2023-07-29T00:10:31;18.10;99.90
10530;DHT22;5313;48.834;9.228;2023-07-29T00:12:57;18.00;99.90
10530;DHT22;5313;48.834;9.228;2023-07-29T00:15:23;18.00;99.90
10530;DHT22;5313;48.834;9.228;2023-07-29T00:17:48;18.10;99.90
10530;DHT22;5313;48.834;9.228;2023-07-29T00:20:14;18.10;99.90
10530;DHT22;5313;48.834;9.228;2023-07-29T00:22:39;18.20;99.90
10530;DHT22;5313;48.834;9.228;2023-07-29T00:25:05;18.20;99.90
10530;DHT22;5313;48.834;9.228;2023-07-29T00:27:31;18.10;99.90
10530;DHT22;5313;48.834;9.228;2023-07-29T00:29:56;18.10;99.90
10530;DHT22;5313;48.834;9.228;2023-07-29T00:32:22;18.10;99.90
10530;DHT22;5313;48.834;9.228;2023-07-29T00:34:47;18.00;99.90
10530;DHT22;5313;48.834;9.228;2023-07-29T00:37:13;17.90;99.90
10530;DHT22;5313;48.834;9.228;2023-07-29T00:39:38;17.90;99.90
10530;DHT22;5313;48.834;9.228;2023-07-29T00:42:05;17.90;99.90
10530;DHT22;5313;48.834;9.228;2023-07-29T00:44:30;17.90;99.90
10530;DHT22;5313;48.834;9.228;2023-07-29T00:46:57;17.90;99.90
10530;DHT22;5313;48.834;9.228;2023-07-29T00:49:23;17.90;99.90
10530;DHT22;5313;48.834;9.228;2023-07-29T00:51:48;17.90;99.90
10530;DHT22;5313;48.834;9.228;2023-07-29T00:54:14;17.80;99.90
10530;DHT22;5313;48.834;9.228;2023-07-29T00:56:40;17.80;99.90
10530;DHT22;5313;48.834;9.228;2023-07-29T00:59:06;17.90;99.90
10530;DHT22;5313;48.834;9.228;2023-07-29T01:01:32;17.80;99.90
10530;DHT22;5313;48.834;9.228;2023-07-29T01:03:58;17.90;99.90
10530;DHT22;5313;48.834;9.228;2023-07-29T01:06:53;17.90;99.90
10530;DHT22;5313;48.834;9.228;2023-07-29T01:12:30;18.00;99.90
10530;DHT22;5313;48.834;9.228;2023-07-29T01:17:52;18.20;99.90
10530;DHT22;5313;48.834;9.228;2023-07-29T01:20:20;18.20;99.90
10530;DHT22;5313;48.834;9.228;2023-07-29T01:22:46;18.20;99.90
10530;DHT22;5313;48.834;9.228;2023-07-29T01:25:15;18.10;99.90
10530;DHT22;5313;48.834;9.228;2023-07-29T01:27:42;18.00;99.90
10530;DHT22;5313;48.834;9.228;2023-07-29T01:30:08;17.90;99.90
10530;DHT22;5313;48.834;9.228;2023-07-29T01:32:55;17.90;99.90
10530;DHT22;5313;48.834;9.228;2023-07-29T01:35:27;17.80;99.90
10530;DHT22;5313;48.834;9.228;2023-07-29T01:38:16;17.80;99.90
10530;DHT22;5313;48.834;9.228;2023-07-29T01:40:43;17.80;99.90
10530;DHT22;5313;48.834;9.228;2023-07-29T01:43:10;17.80;99.90
10530;DHT22;5313;48.834;9.228;2023-07-29T01:45:35;17.80;99.90
10530;DHT22;5313;48.834;9.228;2023-07-29T01:48:05;17.80;99.90
10530;DHT22;5313;48.834;9.228;2023-07-29T01:50:30;17.80;99.90
10530;DHT22;5313;48.834;9.228;2023-07-29T01:52:57;17.80;99.90
10530;DHT22;5313;48.834;9.228;2023-07-29T01:55:23;17.80;99.90
10530;DHT22;5313;48.834;9.228;2023-07-29T01:57:49;17.80;99.90
10530;DHT22;5313;48.834;9.228;2023-07-29T02:00:15;17.80;99.90
10530;DHT22;5313;48.834;9.228;2023-07-29T02:02:41;17.80;99.90
10530;DHT22;5313;48.834;9.228;2023-07-29T02:05:06;17.90;99.90
10530;DHT22;5313;48.834;9.228;2023-07-29T02:07:32;17.90;99.90
10530;DHT22;5313;48.834;9.228;2023-07-29T02:09:58;17.80;99.90
10530;DHT22;5313;48.834;9.228;2023-07-29T02:12:23;18.00;99.90
10530;DHT22;5313;48.834;9.228;2023-07-29T02:14:49;18.00;99.90
10530;DHT22;5313;48.834;9.228;2023-07-29T02:17:15;18.00;99.90
10530;DHT22;5313;48.834;9.228;2023-07-29T02:19:40;17.90;99.90
10530;DHT22;5313;48.834;9.228;2023-07-29T02:22:06;17.90;99.90
10530;DHT22;5313;48.834;9.228;2023-07-29T02:24:31;17.90;99.90
10530;DHT22;5313;48.834;9.228;2023-07-29T02:26:57;18.00;99.90
10530;DHT22;5313;48.834;9.228;2023-07-29T02:29:22;18.00;99.90
10530;DHT22;5313;48.834;9.228;2023-07-29T02:31:48;18.00;99.90
10530;DHT22;5313;48.834;9.228;2023-07-29T02:34:14;18.00;99.90
10530;DHT22;5313;48.834;9.228;2023-07-29T02:36:39;18.10;99.90
10530;DHT22;5313;48.834;9.228;2023-07-29T02:39:05;18.00;99.90
10530;DHT22;5313;48.834;9.228;2023-07-29T02:41:31;18.00;99.90
10530;DHT22;5313;48.834;9.228;2023-07-29T02:43:57;18.20;99.90
10530;DHT22;5313;48.834;9.228;2023-07-29T02:46:22;18.20;99.90
10530;DHT22;5313;48.834;9.228;2023-07-29T02:48:48;18.20;99.90
10530;DHT22;5313;48.834;9.228;2023-07-29T02:51:13;18.30;99.90
10530;DHT22;5313;48.834;9.228;2023-07-29T02:53:39;18.20;99.90
10530;DHT22;5313;48.834;9.228;2023-07-29T02:56:05;18.20;99.90
10530;DHT22;5313;48.834;9.228;2023-07-29T02:58:31;18.20;99.90
10530;DHT22;5313;48.834;9.228;2023-07-29T03:01:04;18.10;99.90
10530;DHT22;5313;48.834;9.228;2023-07-29T03:03:30;18.00;99.90
10530;DHT22;5313;48.834;9.228;2023-07-29T03:06:03;18.00;99.90
10530;DHT22;5313;48.834;9.228;2023-07-29T03:08:29;17.90;99.90
10530;DHT22;5313;48.834;9.228;2023-07-29T03:10:56;17.90;99.90
10530;DHT22;5313;48.834;9.228;2023-07-29T03:13:22;17.90;99.90
10530;DHT22;5313;48.834;9.228;2023-07-29T03:15:47;17.80;99.90
10530;DHT22;5313;48.834;9.228;2023-07-29T03:18:13;17.90;99.90
10530;DHT22;5313;48.834;9.228;2023-07-29T03:20:38;17.80;99.90
10530;DHT22;5313;48.834;9.228;2023-07-29T03:23:03;17.80;99.90
10530;DHT22;5313;48.834;9.228;2023-07-29T03:25:29;17.80;99.90
10530;DHT22;5313;48.834;9.228;2023-07-29T03:27:55;17.90;99.90
10530;DHT22;5313;48.834;9.228;2023-07-29T03:30:21;18.00;99.90
10530;DHT22;5313;48.834;9.228;2023-07-29T03:32:48;18.20;99.90
10530;DHT22;5313;48.834;9.228;2023-07-29T03:35:14;18.00;99.90
10530;DHT22;5313;48.834;9.228;2023-07-29T03:37:40;18.00;99.90
10530;DHT22;5313;48.834;9.228;2023-07-29T03:40:06;18.00;99.90
10530;DHT22;5313;48.834;9.228;2023-07-29T03:42:32;18.00;99.90
10530;DHT22;5313;48.834;9.228;2023-07-29T03:44:58;18.00;99.90
10530;DHT22;5313;48.834;9.228;2023-07-29T03:47:23;18.20;99.90
10530;DHT22;5313;48.834;9.228;2023-07-29T03:49:49;18.20;99.90
10530;DHT22;5313;48.834;9.228;2023-07-29T03:52:15;18.00;99.90
10530;DHT22;5313;48.834;9.228;2023-07-29T03:54:40;17.80;99.90
10530;DHT22;5313;48.834;9.228;2023-07-29T03:57:06;17.90;99.90
10530;DHT22;5313;48.834;9.228;2023-07-29T03:59:32;17.90;99.90
10530;DHT22;5313;48.834;9.228;2023-07-29T04:01:57;17.90;99.90
10530;DHT22;5313;48.834;9.228;2023-07-29T04:04:23;17.90;99.90
10530;DHT22;5313;48.834;9.228;2023-07-29T04:06:49;17.90;99.90
10530;DHT22;5313;48.834;9.228;2023-07-29T04:09:14;17.80;99.90
10530;DHT22;5313;48.834;9.228;2023-07-29T04:11:40;17.80;99.90
10530;DHT22;5313;48.834;9.228;2023-07-29T04:14:05;17.70;99.90
10530;DHT22;5313;48.834;9.228;2023-07-29T04:16:31;17.60;99.90
10530;DHT22;5313;48.834;9.228;2023-07-29T04:18:56;17.50;99.90
10530;DHT22;5313;48.834;9.228;2023-07-29T04:21:22;17.50;99.90
10530;DHT22;5313;48.834;9.228;2023-07-29T04:23:47;17.50;99.90
10530;DHT22;5313;48.834;9.228;2023-07-29T04:26:13;17.40;99.90
10530;DHT22;5313;48.834;9.228;2023-07-29T04:28:38;17.40;99.90
10530;DHT22;5313;48.834;9.228;2023-07-29T04:31:04;17.40;99.90
10530;DHT22;5313;48.834;9.228;2023-07-29T04:33:30;17.40;99.90
10530;DHT22;5313;48.834;9.228;2023-07-29T04:35:56;17.50;99.90
10530;DHT22;5313;48.834;9.228;2023-07-29T04:38:22;17.40;99.90
10530;DHT22;5313;48.834;9.228;2023-07-29T04:40:49;17.50;99.90
10530;DHT22;5313;48.834;9.228;2023-07-29T04:43:14;17.60;99.90
10530;DHT22;5313;48.834;9.228;2023-07-29T04:45:43;17.60;99.90
10530;DHT22;5313;48.834;9.228;2023-07-29T04:48:09;17.50;99.90
10530;DHT22;5313;48.834;9.228;2023-07-29T04:50:34;17.60;99.90
10530;DHT22;5313;48.834;9.228;2023-07-29T04:53:00;17.50;99.90
10530;DHT22;5313;48.834;9.228;2023-07-29T04:55:25;17.50;99.90
10530;DHT22;5313;48.834;9.228;2023-07-29T04:57:51;17.60;99.90
10530;DHT22;5313;48.834;9.228;2023-07-29T05:00:17;17.50;99.90
10530;DHT22;5313;48.834;9.228;2023-07-29T05:02:42;17.50;99.90
10530;DHT22;5313;48.834;9.228;2023-07-29T05:05:08;17.60;99.90
10530;DHT22;5313;48.834;9.228;2023-07-29T05:07:34;17.70;99.90
10530;DHT22;5313;48.834;9.228;2023-07-29T05:09:59;17.70;99.90
10530;DHT22;5313;48.834;9.228;2023-07-29T05:12:25;17.50;99.90
10530;DHT22;5313;48.834;9.228;2023-07-29T05:14:50;17.50;99.90
10530;DHT22;5313;48.834;9.228;2023-07-29T05:17:16;17.40;99.90
10530;DHT22;5313;48.834;9.228;2023-07-29T05:19:41;17.50;99.90
10530;DHT22;5313;48.834;9.228;2023-07-29T05:22:07;17.50;99.90
10530;DHT22;5313;48.834;9.228;2023-07-29T05:24:33;17.50;99.90
10530;DHT22;5313;48.834;9.228;2023-07-29T05:26:58;17.50;99.90
10530;DHT22;5313;48.834;9.228;2023-07-29T05:29:24;17.50;99.90
10530;DHT22;5313;48.834;9.228;2023-07-29T05:31:49;17.60;99.90
10530;DHT22;5313;48.834;9.228;2023-07-29T05:34:14;17.60;99.90
10530;DHT22;5313;48.834;9.228;2023-07-29T05:36:40;17.70;99.90
10530;DHT22;5313;48.834;9.228;2023-07-29T05:39:06;17.70;99.90
10530;DHT22;5313;48.834;9.228;2023-07-29T05:41:32;17.80;99.90
10530;DHT22;5313;48.834;9.228;2023-07-29T05:43:58;17.80;99.90
10530;DHT22;5313;48.834;9.228;2023-07-29T05:46:23;17.80;99.90
10530;DHT22;5313;48.834;9.228;2023-07-29T05:48:49;17.90;99.90
10530;DHT22;5313;48.834;9.228;2023-07-29T05:51:14;17.90;99.90
10530;DHT22;5313;48.834;9.228;2023-07-29T05:53:40;17.90;99.90
10530;DHT22;5313;48.834;9.228;2023-07-29T05:56:05;18.00;99.90
10530;DHT22;5313;48.834;9.228;2023-07-29T05:58:31;18.10;99.90
10530;DHT22;5313;48.834;9.228;2023-07-29T06:00:57;18.10;99.90
10530;DHT22;5313;48.834;9.228;2023-07-29T06:03:23;18.20;99.90
10530;DHT22;5313;48.834;9.228;2023-07-29T06:05:49;18.30;99.90
10530;DHT22;5313;48.834;9.228;2023-07-29T06:08:14;18.50;99.90
10530;DHT22;5313;48.834;9.228;2023-07-29T06:10:40;18.60;99.90
10530;DHT22;5313;48.834;9.228;2023-07-29T06:13:05;18.60;99.90
10530;DHT22;5313;48.834;9.228;2023-07-29T06:15:31;18.70;99.90
10530;DHT22;5313;48.834;9.228;2023-07-29T06:17:57;18.80;99.90
10530;DHT22;5313;48.834;9.228;2023-07-29T06:20:22;18.90;99.90
10530;DHT22;5313;48.834;9.228;2023-07-29T06:22:48;19.00;99.90
10530;DHT22;5313;48.834;9.228;2023-07-29T06:25:13;19.10;99.90
10530;DHT22;5313;48.834;9.228;2023-07-29T06:27:39;19.10;99.90
10530;DHT22;5313;48.834;9.228;2023-07-29T06:30:05;19.10;99.90
10530;DHT22;5313;48.834;9.228;2023-07-29T06:32:31;19.00;99.90
10530;DHT22;5313;48.834;9.228;2023-07-29T06:34:57;19.00;99.90
10530;DHT22;5313;48.834;9.228;2023-07-29T06:37:22;19.00;99.90
10530;DHT22;5313;48.834;9.228;2023-07-29T06:39:48;19.00;99.90
10530;DHT22;5313;48.834;9.228;2023-07-29T06:42:13;19.00;99.90
10530;DHT22;5313;48.834;9.228;2023-07-29T06:44:40;19.00;99.90
10530;DHT22;5313;48.834;9.228;2023-07-29T06:47:05;19.00;99.90
10530;DHT22;5313;48.834;9.228;2023-07-29T06:49:31;18.90;99.90
10530;DHT22;5313;48.834;9.228;2023-07-29T06:51:56;18.80;99.90
10530;DHT22;5313;48.834;9.228;2023-07-29T06:54:25;18.70;99.90
10530;DHT22;5313;48.834;9.228;2023-07-29T06:56:54;18.70;99.90
10530;DHT22;5313;48.834;9.228;2023-07-29T06:59:19;18.60;99.90
10530;DHT22;5313;48.834;9.228;2023-07-29T07:01:45;18.60;99.90
10530;DHT22;5313;48.834;9.228;2023-07-29T07:04:11;18.60;99.90
10530;DHT22;5313;48.834;9.228;2023-07-29T07:06:37;18.50;99.90
10530;DHT22;5313;48.834;9.228;2023-07-29T07:09:03;18.60;99.90
10530;DHT22;5313;48.834;9.228;2023-07-29T07:11:28;18.60;99.90
10530;DHT22;5313;48.834;9.228;2023-07-29T07:13:54;19.40;99.90
10530;DHT22;5313;48.834;9.228;2023-07-29T07:16:19;18.60;99.90
10530;DHT22;5313;48.834;9.228;2023-07-29T07:18:45;18.60;99.90
10530;DHT22;5313;48.834;9.228;2023-07-29T07:21:11;18.60;99.90
10530;DHT22;5313;48.834;9.228;2023-07-29T07:23:36;18.60;99.90
10530;DHT22;5313;48.834;9.228;2023-07-29T07:26:02;18.60;99.90
10530;DHT22;5313;48.834;9.228;2023-07-29T07:28:28;18.60;99.90
10530;DHT22;5313;48.834;9.228;2023-07-29T07:30:53;18.60;99.90
10530;DHT22;5313;48.834;9.228;2023-07-29T07:33:21;18.60;99.90
10530;DHT22;5313;48.834;9.228;2023-07-29T07:35:46;18.70;99.90
10530;DHT22;5313;48.834;9.228;2023-07-29T07:38:12;18.70;99.90
10530;DHT22;5313;48.834;9.228;2023-07-29T07:40:37;18.80;99.90
10530;DHT22;5313;48.834;9.228;2023-07-29T07:43:03;18.80;99.90
10530;DHT22;5313;48.834;9.228;2023-07-29T07:45:28;18.90;99.90
10530;DHT22;5313;48.834;9.228;2023-07-29T07:47:54;19.00;99.90
10530;DHT22;5313;48.834;9.228;2023-07-29T07:50:20;19.00;99.90
10530;DHT22;5313;48.834;9.228;2023-07-29T07:52:45;19.10;99.90
10530;DHT22;5313;48.834;9.228;2023-07-29T07:55:11;19.10;99.90
10530;DHT22;5313;48.834;9.228;2023-07-29T07:57:36;19.20;99.90
10530;DHT22;5313;48.834;9.228;2023-07-29T08:00:02;19.20;99.90
10530;DHT22;5313;48.834;9.228;2023-07-29T08:02:29;19.30;99.90
10530;DHT22;5313;48.834;9.228;2023-07-29T08:04:55;19.30;99.90
10530;DHT22;5313;48.834;9.228;2023-07-29T08:07:20;19.40;99.90
10530;DHT22;5313;48.834;9.228;2023-07-29T08:09:46;19.50;99.90
10530;DHT22;5313;48.834;9.228;2023-07-29T08:12:12;19.70;99.90
10530;DHT22;5313;48.834;9.228;2023-07-29T08:14:37;19.70;99.90
10530;DHT22;5313;48.834;9.228;2023-07-29T08:17:03;19.70;99.90
10530;DHT22;5313;48.834;9.228;2023-07-29T08:19:28;19.70;99.90
10530;DHT22;5313;48.834;9.228;2023-07-29T08:21:54;19.80;99.90
10530;DHT22;5313;48.834;9.228;2023-07-29T08:24:19;20.00;99.90
10530;DHT22;5313;48.834;9.228;2023-07-29T08:26:45;20.10;99.90
10530;DHT22;5313;48.834;9.228;2023-07-29T08:29:11;20.10;99.90
10530;DHT22;5313;48.834;9.228;2023-07-29T08:31:37;20.10;99.90
10530;DHT22;5313;48.834;9.228;2023-07-29T08:34:03;20.10;99.90
10530;DHT22;5313;48.834;9.228;2023-07-29T08:36:28;20.10;99.90
10530;DHT22;5313;48.834;9.228;2023-07-29T08:38:54;20.20;99.90
10530;DHT22;5313;48.834;9.228;2023-07-29T08:41:25;20.20;99.90
10530;DHT22;5313;48.834;9.228;2023-07-29T08:43:59;20.30;99.90
10530;DHT22;5313;48.834;9.228;2023-07-29T08:46:28;20.30;99.90
10530;DHT22;5313;48.834;9.228;2023-07-29T08:48:54;20.40;99.90
10530;DHT22;5313;48.834;9.228;2023-07-29T08:51:21;20.50;99.90
10530;DHT22;5313;48.834;9.228;2023-07-29T08:53:48;20.50;99.90
10530;DHT22;5313;48.834;9.228;2023-07-29T08:56:15;20.70;99.90
10530;DHT22;5313;48.834;9.228;2023-07-29T08:58:41;21.00;99.90
10530;DHT22;5313;48.834;9.228;2023-07-29T09:01:07;21.20;99.90
10530;DHT22;5313;48.834;9.228;2023-07-29T09:03:32;21.50;99.90
10530;DHT22;5313;48.834;9.228;2023-07-29T09:05:58;21.70;99.90
10530;DHT22;5313;48.834;9.228;2023-07-29T09:08:26;21.90;99.90
10530;DHT22;5313;48.834;9.228;2023-07-29T09:10:52;22.10;99.90
10530;DHT22;5313;48.834;9.228;2023-07-29T09:13:17;22.30;99.90
10530;DHT22;5313;48.834;9.228;2023-07-29T09:15:43;22.30;99.90
10530;DHT22;5313;48.834;9.228;2023-07-29T09:18:15;22.30;99.90
10530;DHT22;5313;48.834;9.228;2023-07-29T09:20:41;22.40;99.90
10530;DHT22;5313;48.834;9.228;2023-07-29T09:23:08;22.50;99.90
10530;DHT22;5313;48.834;9.228;2023-07-29T09:25:36;22.60;99.90
10530;DHT22;5313;48.834;9.228;2023-07-29T09:28:08;22.90;99.90
10530;DHT22;5313;48.834;9.228;2023-07-29T09:30:34;22.80;99.90
10530;DHT22;5313;48.834;9.228;2023-07-29T09:32:59;22.80;99.90
10530;DHT22;5313;48.834;9.228;2023-07-29T09:35:27;22.90;99.90
10530;DHT22;5313;48.834;9.228;2023-07-29T09:37:53;23.30;99.90
10530;DHT22;5313;48.834;9.228;2023-07-29T09:40:19;23.40;99.90
10530;DHT22;5313;48.834;9.228;2023-07-29T09:42:49;23.80;99.90
10530;DHT22;5313;48.834;9.228;2023-07-29T09:45:23;23.80;99.90
10530;DHT22;5313;48.834;9.228;2023-07-29T09:47:49;24.00;99.90
10530;DHT22;5313;48.834;9.228;2023-07-29T09:50:15;23.90;99.90
10530;DHT22;5313;48.834;9.228;2023-07-29T09:52:41;23.80;99.90
10530;DHT22;5313;48.834;9.228;2023-07-29T09:55:07;23.40;99.90
10530;DHT22;5313;48.834;9.228;2023-07-29T09:57:34;23.30;99.90
10530;DHT22;5313;48.834;9.228;2023-07-29T10:00:01;23.60;99.90
10530;DHT22;5313;48.834;9.228;2023-07-29T10:02:30;24.10;99.90
10530;DHT22;5313;48.834;9.228;2023-07-29T10:04:57;24.40;99.90
10530;DHT22;5313;48.834;9.228;2023-07-29T10:07:24;24.60;99.90
10530;DHT22;5313;48.834;9.228;2023-07-29T10:09:51;24.60;99.90
10530;DHT22;5313;48.834;9.228;2023-07-29T10:12:18;24.50;99.90
10530;DHT22;5313;48.834;9.228;2023-07-29T10:14:44;24.60;99.90
10530;DHT22;5313;48.834;9.228;2023-07-29T10:17:11;25.00;99.90
10530;DHT22;5313;48.834;9.228;2023-07-29T10:19:39;25.10;99.90
10530;DHT22;5313;48.834;9.228;2023-07-29T10:22:06;24.90;99.90
10530;DHT22;5313;48.834;9.228;2023-07-29T10:24:32;24.10;99.90
10530;DHT22;5313;48.834;9.228;2023-07-29T10:27:00;23.30;99.90
10530;DHT22;5313;48.834;9.228;2023-07-29T10:29:32;23.00;99.90
10530;DHT22;5313;48.834;9.228;2023-07-29T10:32:02;22.70;99.90
10530;DHT22;5313;48.834;9.228;2023-07-29T10:34:28;22.30;99.90
10530;DHT22;5313;48.834;9.228;2023-07-29T10:36:54;22.50;99.90
10530;DHT22;5313;48.834;9.228;2023-07-29T10:39:20;22.50;99.90
10530;DHT22;5313;48.834;9.228;2023-07-29T10:41:59;22.40;99.90
10530;DHT22;5313;48.834;9.228;2023-07-29T10:47:12;22.40;99.90
10530;DHT22;5313;48.834;9.228;2023-07-29T10:49:40;22.30;99.90
10530;DHT22;5313;48.834;9.228;2023-07-29T10:52:06;22.60;99.90
10530;DHT22;5313;48.834;9.228;2023-07-29T10:54:45;23.10;99.90
10530;DHT22;5313;48.834;9.228;2023-07-29T10:57:15;23.10;99.90
10530;DHT22;5313;48.834;9.228;2023-07-29T10:59:41;23.50;99.90
10530;DHT22;5313;48.834;9.228;2023-07-29T11:02:17;23.70;99.90
10530;DHT22;5313;48.834;9.228;2023-07-29T11:04:50;24.20;99.90
10530;DHT22;5313;48.834;9.228;2023-07-29T11:15:14;24.30;99.90
10530;DHT22;5313;48.834;9.228;2023-07-29T11:17:55;25.20;99.90
10530;DHT22;5313;48.834;9.228;2023-07-29T11:20:26;25.70;99.90
10530;DHT22;5313;48.834;9.228;2023-07-29T11:22:56;26.00;99.90
10530;DHT22;5313;48.834;9.228;2023-07-29T11:25:24;25.90;99.90
10530;DHT22;5313;48.834;9.228;2023-07-29T11:27:54;26.10;99.90
10530;DHT22;5313;48.834;9.228;2023-07-29T11:30:20;25.90;99.90
10530;DHT22;5313;48.834;9.228;2023-07-29T11:32:46;25.60;99.90
10530;DHT22;5313;48.834;9.228;2023-07-29T11:35:16;25.10;99.90
10530;DHT22;5313;48.834;9.228;2023-07-29T11:37:44;24.90;99.90
10530;DHT22;5313;48.834;9.228;2023-07-29T11:40:17;24.80;99.90
10530;DHT22;5313;48.834;9.228;2023-07-29T11:42:43;25.00;99.90
10530;DHT22;5313;48.834;9.228;2023-07-29T11:45:09;25.10;99.90
10530;DHT22;5313;48.834;9.228;2023-07-29T11:47:35;25.30;99.90
10530;DHT22;5313;48.834;9.228;2023-07-29T11:50:03;25.40;99.90
10530;DHT22;5313;48.834;9.228;2023-07-29T11:52:31;25.30;99.90
10530;DHT22;5313;48.834;9.228;2023-07-29T11:54:58;25.20;99.90
10530;DHT22;5313;48.834;9.228;2023-07-29T11:57:24;25.20;99.90
10530;DHT22;5313;48.834;9.228;2023-07-29T11:59:50;25.30;99.90
10530;DHT22;5313;48.834;9.228;2023-07-29T12:02:17;25.40;99.90
10530;DHT22;5313;48.834;9.228;2023-07-29T12:04:44;25.80;99.90
10530;DHT22;5313;48.834;9.228;2023-07-29T12:07:12;26.30;99.90
10530;DHT22;5313;48.834;9.228;2023-07-29T12:09:39;26.50;99.90
10530;DHT22;5313;48.834;9.228;2023-07-29T12:12:05;26.40;99.90
10530;DHT22;5313;48.834;9.228;2023-07-29T12:14:32;26.70;99.90
10530;DHT22;5313;48.834;9.228;2023-07-29T12:17:00;26.90;99.90
10530;DHT22;5313;48.834;9.228;2023-07-29T12:19:34;26.70;99.90
10530;DHT22;5313;48.834;9.228;2023-07-29T12:22:04;26.90;99.90
10530;DHT22;5313;48.834;9.228;2023-07-29T12:24:30;27.30;99.90
10530;DHT22;5313;48.834;9.228;2023-07-29T12:26:57;28.10;99.90
10530;DHT22;5313;48.834;9.228;2023-07-29T12:29:22;28.60;99.90
10530;DHT22;5313;48.834;9.228;2023-07-29T12:31:48;28.50;99.90
10530;DHT22;5313;48.834;9.228;2023-07-29T12:34:21;27.90;99.90
10530;DHT22;5313;48.834;9.228;2023-07-29T12:36:50;27.70;99.90
10530;DHT22;5313;48.834;9.228;2023-07-29T12:39:17;27.60;99.90
10530;DHT22;5313;48.834;9.228;2023-07-29T12:41:43;27.40;99.90
10530;DHT22;5313;48.834;9.228;2023-07-29T12:44:08;27.40;99.90
10530;DHT22;5313;48.834;9.228;2023-07-29T12:46:34;27.50;99.90
10530;DHT22;5313;48.834;9.228;2023-07-29T12:48:59;27.50;99.90
10530;DHT22;5313;48.834;9.228;2023-07-29T12:51:25;27.90;99.60
10530;DHT22;5313;48.834;9.228;2023-07-29T12:53:50;28.10;98.40
10530;DHT22;5313;48.834;9.228;2023-07-29T12:56:16;28.60;98.60
10530;DHT22;5313;48.834;9.228;2023-07-29T12:58:41;28.80;96.30
10530;DHT22;5313;48.834;9.228;2023-07-29T13:01:07;29.00;95.40
10530;DHT22;5313;48.834;9.228;2023-07-29T13:03:32;28.60;95.30
10530;DHT22;5313;48.834;9.228;2023-07-29T13:05:58;28.40;95.00
10530;DHT22;5313;48.834;9.228;2023-07-29T13:08:23;28.40;95.10
10530;DHT22;5313;48.834;9.228;2023-07-29T13:10:49;28.10;95.40
10530;DHT22;5313;48.834;9.228;2023-07-29T13:13:14;28.00;96.80
10530;DHT22;5313;48.834;9.228;2023-07-29T13:15:40;28.10;96.10
10530;DHT22;5313;48.834;9.228;2023-07-29T13:18:06;28.40;96.00
10530;DHT22;5313;48.834;9.228;2023-07-29T13:20:31;28.80;94.90
10530;DHT22;5313;48.834;9.228;2023-07-29T13:22:59;28.80;94.70
10530;DHT22;5313;48.834;9.228;2023-07-29T13:25:24;28.80;94.50
10530;DHT22;5313;48.834;9.228;2023-07-29T13:27:50;28.70;93.40
10530;DHT22;5313;48.834;9.228;2023-07-29T13:30:15;28.70;94.30
10530;DHT22;5313;48.834;9.228;2023-07-29T13:32:41;28.90;96.30
10530;DHT22;5313;48.834;9.228;2023-07-29T13:35:06;28.50;95.40
10530;DHT22;5313;48.834;9.228;2023-07-29T13:37:32;28.60;96.90
10530;DHT22;5313;48.834;9.228;2023-07-29T13:39:57;28.20;96.20
10530;DHT22;5313;48.834;9.228;2023-07-29T13:42:23;27.80;95.60
10530;DHT22;5313;48.834;9.228;2023-07-29T13:44:48;27.50;98.40
10530;DHT22;5313;48.834;9.228;2023-07-29T13:47:14;27.30;98.80
10530;DHT22;5313;48.834;9.228;2023-07-29T13:49:40;27.40;98.80
10530;DHT22;5313;48.834;9.228;2023-07-29T13:52:05;27.20;99.00
10530;DHT22;5313;48.834;9.228;2023-07-29T13:54:31;27.10;98.10
10530;DHT22;5313;48.834;9.228;2023-07-29T13:56:57;27.00;99.50
10530;DHT22;5313;48.834;9.228;2023-07-29T13:59:23;26.90;99.00
10530;DHT22;5313;48.834;9.228;2023-07-29T14:01:48;26.70;99.10
10530;DHT22;5313;48.834;9.228;2023-07-29T14:04:14;26.70;99.90
10530;DHT22;5313;48.834;9.228;2023-07-29T14:06:39;26.80;99.90
10530;DHT22;5313;48.834;9.228;2023-07-29T14:09:05;26.70;99.00
10530;DHT22;5313;48.834;9.228;2023-07-29T14:11:30;26.60;99.90
10530;DHT22;5313;48.834;9.228;2023-07-29T14:13:56;26.70;99.90
10530;DHT22;5313;48.834;9.228;2023-07-29T14:16:21;27.00;99.50
10530;DHT22;5313;48.834;9.228;2023-07-29T14:18:47;27.40;98.80
10530;DHT22;5313;48.834;9.228;2023-07-29T14:21:12;28.10;98.40
10530;DHT22;5313;48.834;9.228;2023-07-29T14:23:38;29.10;96.10
10530;DHT22;5313;48.834;9.228;2023-07-29T14:26:03;29.70;94.70
10530;DHT22;5313;48.834;9.228;2023-07-29T14:28:29;29.70;95.20
10530;DHT22;5313;48.834;9.228;2023-07-29T14:30:55;29.90;93.60
10530;DHT22;5313;48.834;9.228;2023-07-29T14:33:20;29.40;92.80
10530;DHT22;5313;48.834;9.228;2023-07-29T14:35:46;28.70;94.40
10530;DHT22;5313;48.834;9.228;2023-07-29T14:38:11;28.00;95.90
10530;DHT22;5313;48.834;9.228;2023-07-29T14:40:37;27.40;97.30
10530;DHT22;5313;48.834;9.228;2023-07-29T14:43:03;27.10;98.80
10530;DHT22;5313;48.834;9.228;2023-07-29T14:45:28;26.90;99.80
10530;DHT22;5313;48.834;9.228;2023-07-29T14:47:54;26.70;99.90
10530;DHT22;5313;48.834;9.228;2023-07-29T14:50:19;26.90;99.90
10530;DHT22;5313;48.834;9.228;2023-07-29T14:52:45;27.10;99.90
10530;DHT22;5313;48.834;9.228;2023-07-29T14:55:10;27.10;99.90
10530;DHT22;5313;48.834;9.228;2023-07-29T14:57:36;27.20;99.90
10530;DHT22;5313;48.834;9.228;2023-07-29T15:00:03;27.50;99.50
10530;DHT22;5313;48.834;9.228;2023-07-29T15:02:29;27.70;99.90
10530;DHT22;5313;48.834;9.228;2023-07-29T15:04:54;28.20;99.10
10530;DHT22;5313;48.834;9.228;2023-07-29T15:07:20;28.50;98.80
10530;DHT22;5313;48.834;9.228;2023-07-29T15:09:46;28.40;98.50
10530;DHT22;5313;48.834;9.228;2023-07-29T15:12:11;28.00;99.40
10530;DHT22;5313;48.834;9.228;2023-07-29T15:14:37;27.80;99.90
10530;DHT22;5313;48.834;9.228;2023-07-29T15:17:02;27.70;99.90
10530;DHT22;5313;48.834;9.228;2023-07-29T15:19:28;27.60;99.90
10530;DHT22;5313;48.834;9.228;2023-07-29T15:21:53;27.70;99.90
10530;DHT22;5313;48.834;9.228;2023-07-29T15:24:19;28.10;99.90
10530;DHT22;5313;48.834;9.228;2023-07-29T15:26:44;28.00;99.90
10530;DHT22;5313;48.834;9.228;2023-07-29T15:29:10;27.80;99.90
10530;DHT22;5313;48.834;9.228;2023-07-29T15:31:36;27.70;99.90
10530;DHT22;5313;48.834;9.228;2023-07-29T15:34:01;27.50;99.90
10530;DHT22;5313;48.834;9.228;2023-07-29T15:36:27;27.20;99.90
10530;DHT22;5313;48.834;9.228;2023-07-29T15:38:53;27.20;99.90
10530;DHT22;5313;48.834;9.228;2023-07-29T15:41:18;27.20;99.90
10530;DHT22;5313;48.834;9.228;2023-07-29T15:43:44;27.30;99.90
10530;DHT22;5313;48.834;9.228;2023-07-29T15:46:09;27.10;99.90
10530;DHT22;5313;48.834;9.228;2023-07-29T15:48:35;27.00;99.90
10530;DHT22;5313;48.834;9.228;2023-07-29T15:51:00;26.90;99.90
10530;DHT22;5313;48.834;9.228;2023-07-29T15:53:26;26.70;99.90
10530;DHT22;5313;48.834;9.228;2023-07-29T15:55:51;26.60;99.90